createdAt,value
2022-09-15T00:00:17.067Z,13.06
2022-09-15T00:02:43.775Z,13.06
2022-09-15T00:05:10.422Z,13.07
2022-09-15T00:07:36.875Z,13.07
2022-09-15T00:10:04.530Z,13.07
2022-09-15T00:12:30.820Z,13.07
2022-09-15T00:14:57.087Z,13.05
2022-09-15T00:17:23.425Z,13.03
2022-09-15T00:19:49.667Z,13.03
2022-09-15T00:22:16.028Z,13.03
2022-09-15T00:24:42.347Z,12.99
2022-09-15T00:27:08.617Z,12.98
2022-09-15T00:29:35.816Z,12.97
2022-09-15T00:32:02.176Z,12.91
2022-09-15T00:34:28.582Z,12.85
2022-09-15T00:36:54.842Z,12.79
2022-09-15T00:39:21.213Z,12.74
2022-09-15T00:41:47.456Z,12.69
2022-09-15T00:44:16.439Z,12.63
2022-09-15T00:46:46.914Z,12.58
2022-09-15T00:49:17.990Z,12.54
2022-09-15T00:51:47.032Z,12.46
2022-09-15T00:54:19.440Z,12.43
2022-09-15T00:56:47.331Z,12.37
2022-09-15T00:59:16.929Z,12.33
2022-09-15T01:01:43.835Z,12.29
2022-09-15T01:04:10.760Z,12.24
2022-09-15T01:06:39.156Z,12.20
2022-09-15T01:09:23.210Z,12.19
2022-09-15T01:11:49.844Z,12.17
2022-09-15T01:14:16.201Z,12.17
2022-09-15T01:16:42.487Z,12.20
2022-09-15T01:19:08.799Z,12.24
2022-09-15T01:21:45.644Z,12.25
2022-09-15T01:24:38.455Z,12.27
2022-09-15T01:27:40.570Z,12.29
2022-09-15T01:30:11.259Z,12.28
2022-09-15T01:33:04.233Z,12.23
2022-09-15T01:35:31.929Z,12.22
2022-09-15T01:38:02.325Z,12.24
2022-09-15T01:40:31.994Z,12.26
2022-09-15T01:42:59.962Z,12.15
2022-09-15T01:45:29.050Z,12.02
2022-09-15T01:47:57.590Z,11.86
2022-09-15T01:50:31.103Z,11.75
2022-09-15T01:53:00.208Z,11.65
2022-09-15T01:55:33.635Z,11.58
2022-09-15T01:57:59.939Z,11.53
2022-09-15T02:00:26.211Z,11.50
2022-09-15T02:02:58.978Z,11.47
2022-09-15T02:05:30.128Z,11.41
2022-09-15T02:07:56.945Z,11.38
2022-09-15T02:10:29.599Z,11.33
2022-09-15T02:12:59.863Z,11.31
2022-09-15T02:15:33.291Z,11.26
2022-09-15T02:18:01.202Z,11.23
2022-09-15T02:20:42.455Z,11.18
2022-09-15T02:23:18.822Z,11.18
2022-09-15T02:25:48.135Z,11.18
2022-09-15T02:28:14.840Z,11.21
2022-09-15T02:41:06.420Z,11.18
2022-09-15T02:43:33.694Z,11.22
2022-09-15T02:46:00.465Z,11.23
2022-09-15T02:48:26.785Z,11.21
2022-09-15T02:50:53.064Z,11.22
2022-09-15T02:53:19.329Z,11.19
2022-09-15T02:55:45.585Z,11.18
2022-09-15T02:58:11.843Z,11.18
2022-09-15T03:00:39.132Z,11.15
2022-09-15T03:03:05.403Z,11.16
2022-09-15T03:05:31.690Z,11.14
2022-09-15T03:07:58.030Z,11.12
2022-09-15T03:10:24.744Z,11.11
2022-09-15T03:12:51.909Z,11.14
2022-09-15T03:15:19.480Z,11.15
2022-09-15T03:17:46.889Z,11.15
2022-09-15T03:20:15.374Z,11.15
2022-09-15T03:22:41.959Z,11.13
2022-09-15T03:25:09.772Z,11.12
2022-09-15T03:27:36.453Z,11.11
2022-09-15T03:30:04.183Z,11.08
2022-09-15T03:32:30.550Z,11.04
2022-09-15T03:34:58.550Z,10.98
2022-09-15T03:37:25.216Z,10.92
2022-09-15T03:39:51.488Z,10.86
2022-09-15T03:42:17.931Z,10.80
2022-09-15T03:44:44.176Z,10.77
2022-09-15T03:47:10.534Z,10.73
2022-09-15T03:49:36.839Z,10.70
2022-09-15T03:52:03.105Z,10.70
2022-09-15T03:54:29.369Z,10.70
2022-09-15T03:56:55.632Z,10.69
2022-09-15T03:59:21.898Z,10.68
2022-09-15T04:01:48.355Z,10.63
2022-09-15T04:04:14.733Z,10.62
2022-09-15T04:06:41.208Z,10.61
2022-09-15T04:09:07.835Z,10.62
2022-09-15T04:11:34.160Z,10.60
2022-09-15T04:14:00.427Z,10.61
2022-09-15T04:16:29.794Z,10.62
2022-09-15T04:18:56.259Z,10.61
2022-09-15T04:21:23.677Z,10.61
2022-09-15T04:23:50.079Z,10.58
2022-09-15T04:26:19.929Z,10.57
2022-09-15T04:28:46.219Z,10.57
2022-09-15T04:31:13.842Z,10.56
2022-09-15T04:33:41.595Z,10.51
2022-09-15T04:36:10.786Z,10.47
2022-09-15T04:38:37.116Z,10.45
2022-09-15T04:41:04.231Z,10.38
2022-09-15T04:43:30.717Z,10.36
2022-09-15T04:45:57.503Z,10.35
2022-09-15T04:48:24.232Z,10.34
2022-09-15T04:50:50.770Z,10.35
2022-09-15T04:53:17.092Z,10.39
2022-09-15T04:55:43.346Z,10.46
2022-09-15T04:58:09.617Z,10.53
2022-09-15T05:00:42.866Z,10.57
2022-09-15T05:03:10.113Z,10.65
2022-09-15T05:05:36.383Z,10.70
2022-09-15T05:08:03.359Z,10.77
2022-09-15T05:10:29.681Z,10.82
2022-09-15T05:12:55.941Z,10.85
2022-09-15T05:15:22.243Z,10.89
2022-09-15T05:17:49.724Z,10.92
2022-09-15T05:20:17.180Z,10.94
2022-09-15T05:22:43.953Z,10.98
2022-09-15T05:25:10.253Z,11.02
2022-09-15T05:27:36.766Z,11.02
2022-09-15T05:30:31.854Z,11.01
2022-09-15T05:32:49.581Z,11.00
2022-09-15T05:35:15.841Z,10.94
2022-09-15T05:37:42.111Z,10.90
2022-09-15T05:40:08.924Z,10.88
2022-09-15T05:42:35.522Z,10.90
2022-09-15T05:45:01.780Z,10.89
2022-09-15T05:47:28.034Z,10.88
2022-09-15T05:49:54.838Z,10.84
2022-09-15T05:52:21.700Z,10.84
2022-09-15T05:54:47.943Z,10.85
2022-09-15T05:57:14.227Z,10.88
2022-09-15T05:59:41.966Z,10.92
2022-09-15T06:02:09.696Z,10.99
2022-09-15T06:04:35.953Z,11.05
2022-09-15T06:07:02.528Z,11.11
2022-09-15T06:09:28.895Z,11.22
2022-09-15T06:11:55.174Z,11.34
2022-09-15T06:14:21.424Z,11.47
2022-09-15T06:16:47.686Z,11.64
2022-09-15T06:19:14.023Z,11.84
2022-09-15T06:21:40.301Z,12.03
2022-09-15T06:24:07.037Z,12.11
2022-09-15T06:26:33.869Z,12.04
2022-09-15T06:29:01.451Z,11.93
2022-09-15T06:31:28.641Z,11.77
2022-09-15T06:33:55.990Z,11.76
2022-09-15T06:36:23.500Z,11.82
2022-09-15T06:38:49.869Z,11.89
2022-09-15T06:41:16.634Z,12.01
2022-09-15T06:43:43.590Z,12.18
2022-09-15T06:46:13.904Z,12.37
2022-09-15T06:48:40.521Z,12.45
2022-09-15T06:51:07.734Z,12.52
2022-09-15T06:53:34.882Z,12.68
2022-09-15T06:56:02.652Z,12.70
2022-09-15T06:58:29.048Z,12.74
2022-09-15T07:00:55.359Z,12.79
2022-09-15T07:03:21.802Z,12.84
2022-09-15T07:05:48.444Z,12.78
2022-09-15T07:08:14.718Z,12.67
2022-09-15T07:10:42.702Z,12.62
2022-09-15T07:13:09.062Z,12.70
2022-09-15T07:15:35.357Z,12.85
2022-09-15T07:18:01.637Z,13.00
2022-09-15T07:20:27.943Z,13.13
2022-09-15T07:22:54.300Z,13.28
2022-09-15T07:25:20.547Z,13.39
2022-09-15T07:27:46.790Z,13.46
2022-09-15T07:30:13.732Z,13.59
2022-09-15T07:32:40.753Z,13.73
2022-09-15T07:35:07.193Z,13.85
2022-09-15T07:37:33.596Z,13.91
2022-09-15T07:39:59.962Z,13.91
2022-09-15T07:42:26.333Z,13.97
2022-09-15T07:44:52.586Z,14.05
2022-09-15T07:47:18.863Z,14.12
2022-09-15T07:49:45.643Z,14.16
2022-09-15T07:52:12.568Z,14.32
2022-09-15T07:54:38.811Z,14.34
2022-09-15T07:57:06.382Z,14.41
2022-09-15T07:59:33.024Z,14.49
2022-09-15T08:01:59.286Z,14.50
2022-09-15T08:04:25.603Z,14.53
2022-09-15T08:06:52.728Z,14.63
2022-09-15T08:09:19.042Z,14.69
2022-09-15T08:11:45.373Z,14.76
2022-09-15T08:14:11.629Z,14.84
2022-09-15T08:16:38.257Z,14.87
2022-09-15T08:19:04.644Z,14.92
2022-09-15T08:21:30.903Z,14.95
2022-09-15T08:23:58.457Z,15.09
2022-09-15T08:26:26.005Z,15.19
2022-09-15T08:28:52.419Z,15.31
2022-09-15T08:31:18.950Z,15.45
2022-09-15T08:33:49.743Z,15.56
2022-09-15T08:36:16.011Z,15.77
2022-09-15T08:38:44.086Z,15.86
2022-09-15T08:41:22.585Z,15.82
2022-09-15T08:43:54.903Z,15.77
2022-09-15T08:46:23.782Z,15.78
2022-09-15T08:48:52.915Z,15.84
2022-09-15T08:51:23.113Z,15.82
2022-09-15T08:53:53.491Z,15.77
2022-09-15T08:56:20.977Z,15.75
2022-09-15T08:58:47.272Z,15.86
2022-09-15T09:01:32.298Z,15.86
2022-09-15T09:03:58.644Z,15.92
2022-09-15T09:06:57.430Z,15.96
2022-09-15T09:09:42.293Z,16.10
2022-09-15T09:12:27.499Z,16.21
2022-09-15T09:14:53.747Z,16.26
2022-09-15T09:17:27.162Z,16.39
2022-09-15T09:19:56.377Z,16.41
2022-09-15T09:22:30.327Z,16.46
2022-09-15T09:24:58.071Z,16.61
2022-09-15T09:27:29.695Z,16.74
2022-09-15T09:30:06.890Z,16.74
2022-09-15T09:32:52.045Z,16.84
2022-09-15T09:35:39.660Z,16.85
2022-09-15T09:38:07.732Z,16.61
2022-09-15T09:40:34.214Z,16.30
2022-09-15T09:43:00.771Z,16.07
2022-09-15T09:45:27.028Z,16.05
2022-09-15T09:47:59.480Z,16.29
2022-09-15T09:50:43.507Z,16.78
2022-09-15T09:53:27.181Z,17.37
2022-09-15T09:55:55.125Z,17.38
2022-09-15T09:58:22.992Z,17.23
2022-09-15T10:00:49.569Z,17.00
2022-09-15T10:03:17.399Z,16.78
2022-09-15T10:05:44.599Z,16.41
2022-09-15T10:08:17.770Z,16.09
2022-09-15T10:10:51.720Z,15.89
2022-09-15T10:13:18.329Z,15.80
2022-09-15T10:15:50.291Z,15.90
2022-09-15T10:18:36.969Z,16.05
2022-09-15T10:21:04.870Z,16.19
2022-09-15T10:23:32.458Z,16.34
2022-09-15T10:26:19.053Z,16.48
2022-09-15T10:29:05.259Z,16.75
2022-09-15T10:31:32.598Z,16.92
2022-09-15T10:34:10.387Z,17.19
2022-09-15T10:36:36.714Z,17.53
2022-09-15T10:39:20.916Z,17.89
2022-09-15T10:41:58.268Z,18.29
2022-09-15T10:44:47.522Z,18.57
2022-09-15T10:47:26.052Z,18.44
2022-09-15T10:49:52.305Z,18.37
2022-09-15T10:52:37.363Z,18.39
2022-09-15T10:55:15.790Z,18.46
2022-09-15T10:57:48.136Z,18.27
2022-09-15T11:00:19.184Z,18.54
2022-09-15T11:02:56.774Z,19.58
2022-09-15T11:05:34.052Z,20.48
2022-09-15T11:08:12.731Z,21.29
2022-09-15T11:10:50.958Z,21.30
2022-09-15T11:13:27.297Z,21.52
2022-09-15T11:16:07.072Z,21.82
2022-09-15T11:18:36.130Z,22.28
2022-09-15T11:21:10.731Z,22.94
2022-09-15T11:23:42.880Z,21.44
2022-09-15T11:26:15.864Z,19.31
2022-09-15T11:28:45.800Z,16.91
2022-09-15T11:31:18.085Z,15.42
2022-09-15T11:34:03.135Z,14.43
2022-09-15T11:36:39.293Z,13.81
2022-09-15T11:39:12.357Z,13.48
2022-09-15T11:41:38.589Z,13.45
2022-09-15T11:44:16.078Z,13.53
2022-09-15T11:46:57.363Z,14.16
2022-09-15T11:49:27.020Z,15.02
2022-09-15T11:51:57.741Z,15.52
2022-09-15T11:54:31.540Z,15.76
2022-09-15T11:56:58.661Z,15.94
2022-09-15T11:59:46.881Z,16.15
2022-09-15T12:02:31.572Z,16.41
2022-09-15T12:05:19.728Z,16.56
2022-09-15T12:07:53.079Z,17.09
2022-09-15T12:10:22.986Z,17.66
2022-09-15T12:12:51.405Z,17.84
2022-09-15T12:15:27.000Z,17.42
2022-09-15T12:18:06.716Z,16.88
2022-09-15T12:20:53.344Z,16.74
2022-09-15T12:23:22.750Z,17.91
2022-09-15T12:26:05.000Z,18.97
2022-09-15T12:28:50.906Z,20.22
2022-09-15T12:31:26.350Z,20.35
2022-09-15T12:34:04.037Z,20.71
2022-09-15T12:36:44.221Z,21.31
2022-09-15T12:39:28.862Z,21.86
2022-09-15T12:42:01.237Z,21.99
2022-09-15T12:44:38.238Z,22.42
2022-09-15T12:47:07.081Z,22.20
2022-09-15T12:49:35.058Z,22.12
2022-09-15T12:52:03.415Z,22.36
2022-09-15T12:54:31.312Z,22.65
2022-09-15T12:56:58.040Z,22.54
2022-09-15T12:59:25.706Z,22.91
2022-09-15T13:01:53.501Z,23.06
2022-09-15T13:04:46.302Z,23.01
2022-09-15T13:07:15.533Z,22.63
2022-09-15T13:09:44.964Z,22.64
2022-09-15T13:12:15.124Z,22.63
2022-09-15T13:14:44.955Z,22.18
2022-09-15T13:17:16.826Z,21.70
2022-09-15T13:19:46.586Z,20.43
2022-09-15T13:22:12.911Z,19.52
2022-09-15T13:24:45.811Z,19.09
2022-09-15T13:27:13.228Z,19.01
2022-09-15T13:29:44.500Z,18.63
2022-09-15T13:32:19.387Z,18.38
2022-09-15T13:35:04.611Z,18.12
2022-09-15T13:40:35.115Z,17.70
2022-09-15T13:43:04.901Z,17.70
2022-09-15T13:45:49.787Z,17.77
2022-09-15T13:48:28.448Z,17.79
2022-09-15T13:51:18.185Z,17.84
2022-09-15T13:53:47.138Z,17.67
2022-09-15T13:56:18.818Z,17.35
2022-09-15T13:59:06.807Z,17.22
2022-09-15T14:01:34.393Z,17.09
2022-09-15T14:04:17.537Z,17.04
2022-09-15T14:06:57.096Z,17.10
2022-09-15T14:09:29.638Z,17.44
2022-09-15T14:11:57.829Z,18.37
2022-09-15T14:14:26.826Z,18.33
2022-09-15T14:16:54.273Z,17.69
2022-09-15T14:19:27.660Z,17.22
2022-09-15T14:21:58.275Z,17.89
2022-09-15T14:24:29.995Z,19.01
2022-09-15T14:27:01.357Z,19.50
2022-09-15T14:29:27.773Z,19.69
2022-09-15T14:31:59.625Z,20.07
2022-09-15T14:34:28.321Z,20.33
2022-09-15T14:37:03.170Z,20.25
2022-09-15T14:39:29.933Z,20.62
2022-09-15T14:41:56.851Z,20.92
2022-09-15T14:47:23.032Z,20.89
2022-09-15T14:49:49.684Z,21.01
2022-09-15T14:52:25.547Z,20.68
2022-09-15T14:54:55.954Z,20.30
2022-09-15T14:57:27.556Z,20.39
2022-09-15T14:59:59.653Z,20.23
2022-09-15T15:02:46.535Z,19.64
2022-09-15T15:05:17.628Z,18.80
2022-09-15T15:07:44.237Z,18.26
2022-09-15T15:10:19.757Z,17.73
2022-09-15T15:12:47.899Z,17.20
2022-09-15T15:15:15.647Z,16.89
2022-09-15T15:17:45.243Z,16.07
2022-09-15T15:20:11.538Z,15.54
2022-09-15T15:22:38.793Z,14.98
2022-09-15T15:25:21.891Z,14.87
2022-09-15T15:27:55.267Z,14.72
2022-09-15T15:30:40.417Z,14.60
2022-09-15T15:33:19.463Z,14.51
2022-09-15T15:35:46.783Z,14.41
2022-09-15T15:38:17.258Z,14.36
2022-09-15T15:40:44.587Z,14.35
2022-09-15T15:43:13.627Z,14.32
2022-09-15T15:45:57.742Z,14.29
2022-09-15T15:48:25.174Z,14.26
2022-09-15T15:50:51.985Z,14.25
2022-09-15T15:53:18.429Z,14.35
2022-09-15T15:55:44.801Z,14.47
2022-09-15T15:58:11.893Z,14.44
2022-09-15T16:00:47.317Z,14.49
2022-09-15T16:03:14.560Z,14.52
2022-09-15T16:05:42.671Z,14.56
2022-09-15T16:08:20.563Z,14.55
2022-09-15T16:10:47.992Z,14.60
2022-09-15T16:13:18.049Z,14.67
2022-09-15T16:15:44.796Z,14.74
2022-09-15T16:18:11.474Z,14.76
2022-09-15T16:20:38.104Z,14.74
2022-09-15T16:23:04.588Z,14.62
2022-09-15T16:25:34.041Z,14.50
2022-09-15T16:28:00.665Z,14.33
2022-09-15T16:30:27.326Z,14.19
2022-09-15T16:32:53.676Z,14.15
2022-09-15T16:35:23.315Z,14.09
2022-09-15T16:37:49.596Z,14.06
2022-09-15T16:40:17.864Z,14.01
2022-09-15T16:42:45.149Z,13.99
2022-09-15T16:45:17.195Z,14.00
2022-09-15T16:47:43.436Z,13.97
2022-09-15T16:50:10.224Z,13.98
2022-09-15T16:52:36.564Z,13.92
2022-09-15T16:55:09.354Z,13.80
2022-09-15T16:57:35.611Z,13.71
2022-09-15T17:00:03.059Z,13.58
2022-09-15T17:02:29.308Z,13.45
2022-09-15T17:04:55.563Z,13.35
2022-09-15T17:07:21.804Z,13.31
2022-09-15T17:09:49.777Z,13.22
2022-09-15T17:12:16.076Z,13.16
2022-09-15T17:14:42.423Z,13.05
2022-09-15T17:17:22.477Z,13.00
2022-09-15T17:19:48.972Z,12.92
2022-09-15T17:22:15.214Z,12.79
2022-09-15T17:24:41.651Z,12.68
2022-09-15T17:27:07.900Z,12.60
2022-09-15T17:29:34.187Z,12.55
2022-09-15T17:32:00.483Z,12.46
2022-09-15T17:34:26.739Z,12.41
2022-09-15T17:36:52.997Z,12.38
2022-09-15T17:39:19.268Z,12.36
2022-09-15T17:41:47.028Z,12.40
2022-09-15T17:44:13.327Z,12.39
2022-09-15T17:46:39.714Z,12.33
2022-09-15T17:49:06.500Z,12.29
2022-09-15T17:51:32.729Z,12.20
2022-09-15T17:53:58.974Z,12.13
2022-09-15T17:56:25.224Z,12.08
2022-09-15T17:58:51.503Z,12.04
2022-09-15T18:01:17.810Z,12.01
2022-09-15T18:03:44.979Z,11.98
2022-09-15T18:06:11.298Z,11.92
2022-09-15T18:08:37.629Z,11.88
2022-09-15T18:11:04.464Z,11.80
2022-09-15T18:13:31.151Z,11.73
2022-09-15T18:15:58.374Z,11.75
2022-09-15T18:18:25.875Z,11.73
2022-09-15T18:20:53.708Z,11.70
2022-09-15T18:23:21.403Z,11.65
2022-09-15T18:25:47.912Z,11.63
2022-09-15T18:28:15.300Z,11.57
2022-09-15T18:30:42.465Z,11.53
2022-09-15T18:33:16.514Z,11.52
2022-09-15T18:35:43.384Z,11.49
2022-09-15T18:38:10.282Z,11.41
2022-09-15T18:40:36.632Z,11.39
2022-09-15T18:43:02.994Z,11.37
2022-09-15T18:45:29.264Z,11.35
2022-09-15T18:47:55.675Z,11.31
2022-09-15T18:50:23.165Z,11.26
2022-09-15T18:52:49.972Z,11.16
2022-09-15T18:55:18.148Z,11.13
2022-09-15T18:57:45.001Z,11.09
2022-09-15T19:00:14.218Z,10.99
2022-09-15T19:02:40.741Z,10.96
2022-09-15T19:05:07.797Z,10.90
2022-09-15T19:07:34.276Z,10.87
2022-09-15T19:10:01.836Z,10.87
2022-09-15T19:12:28.446Z,10.83
2022-09-15T19:14:54.799Z,10.84
2022-09-15T19:17:21.403Z,10.83
2022-09-15T19:19:50.074Z,10.84
2022-09-15T19:22:16.320Z,10.78
2022-09-15T19:24:43.149Z,10.72
2022-09-15T19:27:09.753Z,10.68
2022-09-15T19:29:36.971Z,10.62
2022-09-15T19:32:05.326Z,10.58
2022-09-15T19:34:32.281Z,10.54
2022-09-15T19:37:02.054Z,10.52
2022-09-15T19:39:28.561Z,10.48
2022-09-15T19:41:54.826Z,10.46
2022-09-15T19:44:21.251Z,10.44
2022-09-15T19:46:47.527Z,10.39
2022-09-15T19:49:14.001Z,10.36
2022-09-15T19:51:40.305Z,10.32
2022-09-15T19:54:07.006Z,10.29
2022-09-15T19:56:34.301Z,10.24
2022-09-15T19:59:00.844Z,10.23
2022-09-15T20:01:28.605Z,10.21
2022-09-15T20:03:55.917Z,10.22
2022-09-15T20:06:22.768Z,10.22
2022-09-15T20:08:52.675Z,10.24
2022-09-15T20:11:19.534Z,10.26
2022-09-15T20:13:46.207Z,10.24
2022-09-15T20:16:17.599Z,10.22
2022-09-15T20:18:46.605Z,10.20
2022-09-15T20:21:32.405Z,10.17
2022-09-15T20:24:05.033Z,10.10
2022-09-15T20:26:31.680Z,10.07
2022-09-15T20:29:02.033Z,10.03
2022-09-15T20:31:29.031Z,9.99
2022-09-15T20:33:55.570Z,9.96
2022-09-15T20:36:29.815Z,9.91
2022-09-15T20:38:56.689Z,9.86
2022-09-15T20:41:24.299Z,9.84
2022-09-15T20:43:51.216Z,9.81
2022-09-15T20:46:19.386Z,9.80
2022-09-15T20:48:46.536Z,9.78
2022-09-15T20:51:17.545Z,9.77
2022-09-15T20:53:45.463Z,9.78
2022-09-15T20:56:12.732Z,9.75
2022-09-15T20:58:39.537Z,9.77
2022-09-15T21:01:10.189Z,9.74
2022-09-15T21:03:37.409Z,9.73
2022-09-15T21:06:05.254Z,9.70
2022-09-15T21:08:31.943Z,9.70
2022-09-15T21:10:59.317Z,9.67
2022-09-15T21:13:28.727Z,9.64
2022-09-15T21:15:59.217Z,9.58
2022-09-15T21:18:26.200Z,9.56
2022-09-15T21:20:59.565Z,9.53
2022-09-15T21:23:26.489Z,9.46
2022-09-15T21:26:01.173Z,9.42
2022-09-15T21:28:28.590Z,9.33
2022-09-15T21:31:00.634Z,9.25
2022-09-15T21:33:27.121Z,9.25
2022-09-15T21:36:01.055Z,9.33
2022-09-15T21:38:27.330Z,9.43
2022-09-15T21:40:53.599Z,9.53
2022-09-15T21:43:19.864Z,9.54
2022-09-15T21:45:46.163Z,9.54
2022-09-15T21:48:14.138Z,9.46
2022-09-15T21:50:53.401Z,9.40
2022-09-15T21:53:20.932Z,9.34
2022-09-15T21:55:50.219Z,9.32
2022-09-15T21:58:18.215Z,9.27
2022-09-15T22:00:45.005Z,9.19
2022-09-15T22:03:11.330Z,9.14
2022-09-15T22:05:41.155Z,9.11
2022-09-15T22:08:08.687Z,9.12
2022-09-15T22:10:35.068Z,9.16
2022-09-15T22:13:01.310Z,9.16
2022-09-15T22:15:27.960Z,9.14
2022-09-15T22:17:54.217Z,9.14
2022-09-15T22:20:20.621Z,9.14
2022-09-15T22:22:46.896Z,9.10
2022-09-15T22:25:13.177Z,9.10
2022-09-15T22:27:39.637Z,9.13
2022-09-15T22:30:06.190Z,9.18
2022-09-15T22:32:32.459Z,9.24
2022-09-15T22:34:58.731Z,9.26
2022-09-15T22:37:27.511Z,9.21
2022-09-15T22:40:01.043Z,9.22
2022-09-15T22:42:27.332Z,9.23
2022-09-15T22:44:53.715Z,9.27
2022-09-15T22:47:19.984Z,9.30
2022-09-15T22:49:46.267Z,9.26
2022-09-15T22:52:13.235Z,9.22
2022-09-15T22:54:39.512Z,9.18
2022-09-15T22:57:05.843Z,9.16
2022-09-15T22:59:32.104Z,9.14
2022-09-15T23:01:58.429Z,9.13
2022-09-15T23:04:24.728Z,9.16
2022-09-15T23:06:51.613Z,9.19
2022-09-15T23:09:17.862Z,9.21
2022-09-15T23:11:44.144Z,9.24
2022-09-15T23:14:15.446Z,9.26
2022-09-15T23:16:42.578Z,9.29
2022-09-15T23:19:11.237Z,9.34
2022-09-15T23:21:37.475Z,9.44
2022-09-15T23:24:03.884Z,9.50
2022-09-15T23:26:30.141Z,9.52
2022-09-15T23:28:56.443Z,9.53
2022-09-15T23:31:22.843Z,9.48
2022-09-15T23:33:49.309Z,9.38
2022-09-15T23:36:16.383Z,9.30
2022-09-15T23:38:44.975Z,9.26
2022-09-15T23:41:11.688Z,9.19
2022-09-15T23:43:37.945Z,9.14
2022-09-15T23:46:04.605Z,9.10
2022-09-15T23:48:33.576Z,9.06
2022-09-15T23:51:00.366Z,9.04
2022-09-15T23:53:26.676Z,9.03
2022-09-15T23:55:52.954Z,9.03
2022-09-15T23:58:19.354Z,9.03
